createdAt,value
2019-03-20T00:01:53.923Z,5.80
2019-03-20T00:04:26.872Z,5.90
2019-03-20T00:06:59.242Z,5.90
2019-03-20T00:09:31.960Z,5.90
2019-03-20T00:12:04.220Z,5.90
2019-03-20T00:14:36.892Z,5.80
2019-03-20T00:17:10.354Z,5.80
2019-03-20T00:19:42.860Z,5.70
2019-03-20T00:22:18.297Z,5.70
2019-03-20T00:24:50.617Z,5.70
2019-03-20T00:27:23.153Z,5.70
2019-03-20T00:29:55.950Z,5.70
2019-03-20T00:32:28.634Z,5.70
2019-03-20T00:35:01.614Z,5.70
2019-03-20T00:37:34.380Z,5.70
2019-03-20T00:40:07.915Z,5.70
2019-03-20T00:42:40.793Z,5.60
2019-03-20T00:45:14.196Z,5.60
2019-03-20T00:47:46.584Z,5.70
2019-03-20T00:50:19.319Z,5.70
2019-03-20T00:52:52.114Z,5.60
2019-03-20T00:55:24.392Z,5.60
2019-03-20T00:57:56.785Z,5.60
2019-03-20T01:00:29.246Z,5.60
2019-03-20T01:03:01.800Z,5.60
2019-03-20T01:05:34.187Z,5.60
2019-03-20T01:08:06.521Z,5.50
2019-03-20T01:10:39.251Z,5.60
2019-03-20T01:13:12.116Z,5.50
2019-03-20T01:15:44.915Z,5.50
2019-03-20T01:18:17.424Z,5.50
2019-03-20T01:20:50.621Z,5.50
2019-03-20T01:23:23.107Z,5.40
2019-03-20T01:25:55.878Z,5.40
2019-03-20T01:28:28.188Z,5.40
2019-03-20T01:31:00.687Z,5.30
2019-03-20T01:33:33.670Z,5.30
2019-03-20T01:36:06.283Z,5.30
2019-03-20T01:38:38.828Z,5.30
2019-03-20T01:41:11.400Z,5.30
2019-03-20T01:43:43.704Z,5.30
2019-03-20T01:46:16.143Z,5.30
2019-03-20T01:48:48.432Z,5.30
2019-03-20T01:51:22.771Z,5.20
2019-03-20T01:53:55.672Z,5.20
2019-03-20T01:56:28.228Z,5.20
2019-03-20T01:59:00.541Z,5.20
2019-03-20T02:01:32.980Z,5.10
2019-03-20T02:04:05.493Z,5.10
2019-03-20T02:06:37.990Z,5.10
2019-03-20T02:09:10.510Z,5.00
2019-03-20T02:11:42.935Z,5.00
2019-03-20T02:14:15.785Z,5.10
2019-03-20T02:16:48.288Z,5.10
2019-03-20T02:19:20.953Z,5.10
2019-03-20T02:21:53.834Z,5.10
2019-03-20T02:24:26.101Z,5.00
2019-03-20T02:26:58.493Z,5.00
2019-03-20T02:29:31.196Z,5.00
2019-03-20T02:32:03.774Z,4.90
2019-03-20T02:34:36.529Z,5.00
2019-03-20T02:37:09.430Z,5.00
2019-03-20T02:39:42.032Z,5.00
2019-03-20T02:42:14.572Z,5.00
2019-03-20T02:44:47.473Z,4.90
2019-03-20T02:47:19.940Z,4.90
2019-03-20T02:49:52.329Z,4.80
2019-03-20T02:52:25.096Z,4.80
2019-03-20T02:54:57.469Z,4.90
2019-03-20T02:57:29.830Z,4.90
2019-03-20T03:00:02.319Z,4.90
2019-03-20T03:02:35.201Z,4.90
2019-03-20T03:05:11.282Z,5.00
2019-03-20T03:07:43.808Z,4.90
2019-03-20T03:10:17.249Z,4.90
2019-03-20T03:12:49.758Z,4.80
2019-03-20T03:15:22.177Z,4.90
2019-03-20T03:17:54.841Z,4.90
2019-03-20T03:20:27.336Z,4.80
2019-03-20T03:22:59.789Z,4.80
2019-03-20T03:25:32.296Z,4.70
2019-03-20T03:28:04.896Z,4.80
2019-03-20T03:30:37.788Z,4.70
2019-03-20T03:33:10.755Z,4.80
2019-03-20T03:35:43.379Z,4.70
2019-03-20T03:38:15.927Z,4.80
2019-03-20T03:40:48.660Z,4.70
2019-03-20T03:43:24.077Z,4.70
2019-03-20T03:45:55.688Z,4.70
2019-03-20T03:48:28.383Z,4.70
2019-03-20T03:51:00.964Z,4.70
2019-03-20T03:53:33.422Z,4.80
2019-03-20T03:56:06.054Z,4.80
2019-03-20T03:58:38.558Z,4.80
2019-03-20T04:01:11.379Z,4.80
2019-03-20T04:03:44.278Z,4.80
2019-03-20T04:06:17.092Z,4.80
2019-03-20T04:08:49.797Z,4.80
2019-03-20T04:11:22.763Z,4.80
2019-03-20T04:13:55.136Z,4.80
2019-03-20T04:16:27.743Z,4.90
2019-03-20T04:19:00.179Z,4.90
2019-03-20T04:21:32.780Z,4.80
2019-03-20T04:24:05.686Z,4.90
2019-03-20T04:26:38.410Z,4.90
2019-03-20T04:29:11.238Z,4.90
2019-03-20T04:31:44.181Z,4.90
2019-03-20T04:34:17.152Z,4.90
2019-03-20T04:36:50.050Z,4.90
2019-03-20T04:39:22.541Z,4.90
2019-03-20T04:41:55.635Z,4.90
2019-03-20T04:44:28.313Z,4.90
2019-03-20T04:47:00.925Z,4.90
2019-03-20T04:49:33.279Z,4.90
2019-03-20T04:52:05.659Z,4.90
2019-03-20T04:54:37.968Z,4.90
2019-03-20T04:57:10.531Z,4.90
2019-03-20T04:59:42.984Z,4.90
2019-03-20T05:02:15.745Z,4.90
2019-03-20T05:04:48.158Z,4.90
2019-03-20T05:07:20.726Z,4.90
2019-03-20T05:09:53.169Z,4.90
2019-03-20T05:12:25.556Z,4.90
2019-03-20T05:14:58.025Z,5.00
2019-03-20T05:17:30.723Z,5.00
2019-03-20T05:20:03.578Z,5.20
2019-03-20T05:22:37.015Z,5.30
2019-03-20T05:25:09.787Z,5.50
2019-03-20T05:27:42.572Z,5.80
2019-03-20T05:30:15.711Z,6.00
2019-03-20T05:32:48.221Z,6.30
2019-03-20T05:35:20.627Z,6.60
2019-03-20T05:37:53.165Z,6.90
2019-03-20T05:40:25.736Z,7.20
2019-03-20T05:42:58.140Z,7.60
2019-03-20T05:45:30.599Z,7.90
2019-03-20T05:48:03.219Z,8.20
2019-03-20T05:50:35.631Z,8.50
2019-03-20T05:53:08.248Z,9.00
2019-03-20T05:55:40.737Z,9.30
2019-03-20T05:58:13.343Z,9.60
2019-03-20T06:00:45.941Z,10.00
2019-03-20T06:03:18.558Z,10.30
2019-03-20T06:05:51.104Z,10.30
2019-03-20T06:08:23.785Z,10.50
2019-03-20T06:10:56.106Z,11.00
2019-03-20T06:13:28.808Z,11.50
2019-03-20T06:16:01.107Z,11.80
2019-03-20T06:18:33.483Z,12.10
2019-03-20T06:21:06.055Z,12.50
2019-03-20T06:23:38.700Z,12.80
2019-03-20T06:26:11.317Z,13.00
2019-03-20T06:28:43.754Z,13.50
2019-03-20T06:31:18.653Z,14.00
2019-03-20T06:33:50.487Z,14.40
2019-03-20T06:36:22.815Z,14.40
2019-03-20T06:38:55.525Z,14.70
2019-03-20T06:41:28.109Z,15.10
2019-03-20T06:44:00.517Z,15.40
2019-03-20T06:46:33.095Z,15.90
2019-03-20T06:49:07.859Z,16.10
2019-03-20T06:51:39.947Z,16.40
2019-03-20T06:54:12.581Z,16.40
2019-03-20T06:56:45.258Z,16.80
2019-03-20T07:00:41.036Z,17.10
2019-03-20T07:03:22.958Z,17.20
2019-03-20T07:06:32.542Z,17.60
2019-03-20T07:09:20.890Z,17.80
2019-03-20T07:11:53.730Z,18.10
2019-03-20T07:14:26.457Z,18.20
2019-03-20T07:16:58.910Z,18.50
2019-03-20T07:19:31.419Z,18.40
2019-03-20T07:22:03.855Z,18.30
2019-03-20T07:24:36.560Z,18.50
2019-03-20T07:27:09.615Z,18.60
2019-03-20T07:29:42.330Z,18.60
2019-03-20T07:32:14.975Z,18.70
2019-03-20T07:34:47.593Z,19.00
2019-03-20T07:37:20.332Z,19.40
2019-03-20T07:39:54.541Z,19.60
2019-03-20T07:42:27.006Z,19.80
2019-03-20T07:44:59.510Z,20.20
2019-03-20T07:47:32.275Z,19.90
2019-03-20T07:50:05.377Z,19.70
2019-03-20T07:52:40.775Z,19.30
2019-03-20T07:55:13.214Z,18.40
2019-03-20T07:57:46.099Z,18.20
2019-03-20T08:00:18.797Z,18.70
2019-03-20T08:02:51.227Z,19.40
2019-03-20T08:05:29.154Z,19.40
2019-03-20T08:08:06.662Z,18.30
2019-03-20T08:10:32.823Z,16.90
2019-03-20T08:13:05.530Z,17.20
2019-03-20T08:15:38.386Z,17.50
2019-03-20T08:18:10.997Z,16.70
2019-03-20T08:20:43.635Z,15.70
2019-03-20T08:23:16.075Z,15.00
2019-03-20T08:25:48.884Z,14.40
2019-03-20T08:28:21.501Z,14.70
2019-03-20T08:30:54.052Z,14.90
2019-03-20T08:33:26.879Z,14.70
2019-03-20T08:35:59.557Z,14.70
2019-03-20T08:38:31.678Z,14.80
2019-03-20T08:41:05.053Z,14.60
2019-03-20T08:43:37.532Z,14.20
2019-03-20T08:46:10.376Z,13.80
2019-03-20T08:48:43.058Z,13.50
2019-03-20T08:51:15.758Z,13.40
2019-03-20T08:53:48.409Z,13.30
2019-03-20T08:56:20.921Z,13.10
2019-03-20T08:58:53.557Z,13.10
2019-03-20T09:01:28.871Z,13.10
2019-03-20T09:04:00.830Z,13.20
2019-03-20T09:06:33.541Z,13.30
2019-03-20T09:09:09.027Z,13.50
2019-03-20T09:11:41.922Z,13.60
2019-03-20T09:14:15.270Z,13.60
2019-03-20T09:16:47.635Z,13.60
2019-03-20T09:19:20.391Z,13.90
2019-03-20T09:21:52.968Z,14.00
2019-03-20T09:24:25.687Z,14.60
2019-03-20T09:26:58.218Z,15.00
2019-03-20T09:29:35.930Z,14.80
2019-03-20T09:32:05.089Z,14.50
2019-03-20T09:34:37.928Z,14.10
2019-03-20T09:37:10.428Z,13.90
2019-03-20T09:39:43.099Z,13.60
2019-03-20T09:42:15.862Z,14.50
2019-03-20T09:44:48.408Z,15.90
2019-03-20T09:47:20.965Z,16.90
2019-03-20T09:49:53.321Z,18.00
2019-03-20T09:52:25.872Z,18.60
2019-03-20T09:54:58.574Z,19.40
2019-03-20T09:57:31.290Z,20.00
2019-03-20T10:00:03.664Z,20.50
2019-03-20T10:02:36.011Z,20.80
2019-03-20T10:05:08.945Z,20.40
2019-03-20T10:07:41.551Z,19.70
2019-03-20T10:10:20.054Z,18.60
2019-03-20T10:12:52.992Z,17.60
2019-03-20T10:15:25.608Z,16.50
2019-03-20T10:17:58.657Z,15.90
2019-03-20T10:20:31.725Z,15.70
2019-03-20T10:23:04.456Z,15.80
2019-03-20T10:25:44.396Z,16.40
2019-03-20T10:28:11.081Z,16.60
2019-03-20T10:30:43.586Z,16.40
2019-03-20T10:33:16.677Z,16.10
2019-03-20T10:35:50.470Z,15.70
2019-03-20T10:38:23.238Z,15.30
2019-03-20T10:40:55.818Z,14.70
2019-03-20T10:43:29.801Z,14.40
2019-03-20T10:46:02.320Z,14.20
2019-03-20T10:48:34.786Z,14.40
2019-03-20T10:51:07.306Z,15.10
2019-03-20T10:53:39.876Z,15.20
2019-03-20T10:56:12.598Z,15.20
2019-03-20T10:58:45.313Z,14.60
2019-03-20T11:01:17.834Z,14.30
2019-03-20T11:03:50.309Z,14.30
2019-03-20T11:06:23.006Z,14.40
2019-03-20T11:08:55.640Z,14.20
2019-03-20T11:11:28.314Z,14.20
2019-03-20T11:14:00.977Z,14.20
2019-03-20T11:16:33.845Z,14.20
2019-03-20T11:19:06.355Z,14.80
2019-03-20T11:21:39.350Z,15.50
2019-03-20T11:24:11.747Z,16.00
2019-03-20T11:26:44.311Z,16.40
2019-03-20T11:29:21.477Z,16.80
2019-03-20T11:31:51.321Z,17.00
2019-03-20T11:34:23.901Z,17.10
2019-03-20T11:36:56.616Z,17.40
2019-03-20T11:39:30.067Z,16.80
2019-03-20T11:42:02.816Z,16.30
2019-03-20T11:44:35.516Z,16.10
2019-03-20T11:47:08.243Z,15.50
2019-03-20T11:49:40.911Z,15.10
2019-03-20T11:52:14.154Z,14.90
2019-03-20T11:54:46.615Z,14.70
2019-03-20T11:57:21.581Z,14.20
2019-03-20T11:59:53.599Z,14.10
2019-03-20T12:02:28.436Z,14.40
2019-03-20T12:05:00.169Z,14.50
2019-03-20T12:07:32.836Z,14.50
2019-03-20T12:10:06.429Z,14.50
2019-03-20T12:12:39.249Z,14.30
2019-03-20T12:15:11.979Z,14.10
2019-03-20T12:17:44.539Z,14.10
2019-03-20T12:20:20.687Z,14.30
2019-03-20T12:22:53.768Z,14.50
2019-03-20T12:25:28.521Z,14.30
2019-03-20T12:28:01.448Z,14.60
2019-03-20T12:30:34.316Z,14.80
2019-03-20T12:33:07.780Z,14.80
2019-03-20T12:35:40.492Z,14.60
2019-03-20T12:38:15.115Z,14.50
2019-03-20T12:40:48.199Z,14.40
2019-03-20T12:43:20.981Z,14.30
2019-03-20T12:45:53.603Z,14.20
2019-03-20T12:48:26.144Z,14.10
2019-03-20T12:50:58.641Z,13.80
2019-03-20T12:53:32.711Z,13.70
2019-03-20T12:56:05.357Z,13.70
2019-03-20T12:58:37.794Z,13.50
2019-03-20T13:01:10.850Z,13.50
2019-03-20T13:03:43.471Z,13.40
2019-03-20T13:06:16.068Z,13.50
2019-03-20T13:08:48.790Z,13.70
2019-03-20T13:11:21.263Z,13.90
2019-03-20T13:13:53.739Z,13.90
2019-03-20T13:16:26.243Z,14.00
2019-03-20T13:18:58.878Z,14.00
2019-03-20T13:21:31.411Z,13.70
2019-03-20T13:24:04.351Z,13.60
2019-03-20T13:26:36.852Z,13.60
2019-03-20T13:29:09.556Z,13.40
2019-03-20T13:31:42.156Z,13.00
2019-03-20T13:34:14.678Z,13.00
2019-03-20T13:36:47.258Z,13.00
2019-03-20T13:39:19.770Z,13.00
2019-03-20T13:41:52.337Z,13.00
2019-03-20T13:44:24.883Z,12.90
2019-03-20T13:46:57.468Z,12.90
2019-03-20T13:49:30.133Z,12.70
2019-03-20T13:52:03.235Z,12.70
2019-03-20T13:54:35.797Z,12.70
2019-03-20T13:57:08.344Z,12.90
2019-03-20T13:59:40.889Z,13.00
2019-03-20T14:02:13.331Z,13.10
2019-03-20T14:04:45.854Z,13.00
2019-03-20T14:07:18.395Z,12.90
2019-03-20T14:09:51.135Z,12.80
2019-03-20T14:12:23.935Z,12.70
2019-03-20T14:14:56.399Z,12.70
2019-03-20T14:17:29.020Z,12.40
2019-03-20T14:20:01.504Z,12.30
2019-03-20T14:22:34.048Z,12.20
2019-03-20T14:25:07.140Z,11.90
2019-03-20T14:27:39.866Z,11.90
2019-03-20T14:30:25.790Z,11.90
2019-03-20T14:32:58.464Z,11.90
2019-03-20T14:35:31.094Z,11.90
2019-03-20T14:38:03.864Z,11.70
2019-03-20T14:40:36.992Z,11.80
2019-03-20T14:43:09.836Z,11.80
2019-03-20T14:45:42.568Z,11.90
2019-03-20T14:48:15.323Z,11.80
2019-03-20T14:50:47.846Z,11.80
2019-03-20T14:53:20.696Z,11.70
2019-03-20T14:55:53.154Z,11.50
2019-03-20T14:58:25.985Z,11.50
2019-03-20T15:00:58.742Z,11.50
2019-03-20T15:03:31.176Z,11.40
2019-03-20T15:06:03.853Z,11.40
2019-03-20T15:08:36.641Z,11.40
2019-03-20T15:11:09.072Z,11.50
2019-03-20T15:13:41.734Z,11.30
2019-03-20T15:16:15.424Z,11.20
2019-03-20T15:18:48.108Z,11.10
2019-03-20T15:21:20.573Z,11.20
2019-03-20T15:23:53.036Z,11.20
2019-03-20T15:26:25.751Z,11.20
2019-03-20T15:28:58.290Z,11.40
2019-03-20T15:31:30.925Z,11.20
2019-03-20T15:34:03.591Z,11.20
2019-03-20T15:36:36.047Z,11.20
2019-03-20T15:39:09.720Z,11.20
2019-03-20T15:41:42.269Z,11.20
2019-03-20T15:44:15.015Z,11.10
2019-03-20T15:46:47.781Z,11.10
2019-03-20T15:49:20.247Z,11.00
2019-03-20T15:51:52.878Z,11.10
2019-03-20T15:54:25.790Z,11.00
2019-03-20T15:56:58.567Z,10.90
2019-03-20T15:59:31.513Z,10.90
2019-03-20T16:02:03.862Z,11.00
2019-03-20T16:04:36.451Z,11.00
2019-03-20T16:07:08.821Z,11.10
2019-03-20T16:09:41.117Z,11.10
2019-03-20T16:12:13.791Z,11.10
2019-03-20T16:14:48.415Z,10.90
2019-03-20T16:17:20.881Z,10.90
2019-03-20T16:19:53.487Z,10.80
2019-03-20T16:22:26.241Z,10.80
2019-03-20T16:24:59.675Z,10.80
2019-03-20T16:27:32.283Z,10.60
2019-03-20T16:30:05.872Z,10.60
2019-03-20T16:32:38.614Z,10.60
2019-03-20T16:35:11.245Z,10.50
2019-03-20T16:37:44.116Z,10.40
2019-03-20T16:40:19.289Z,10.30
2019-03-20T16:42:52.014Z,10.30
2019-03-20T16:45:27.507Z,10.30
2019-03-20T16:48:00.348Z,10.20
2019-03-20T16:50:33.073Z,10.10
2019-03-20T16:53:06.016Z,10.10
2019-03-20T16:55:38.592Z,10.00
2019-03-20T16:58:11.352Z,10.00
2019-03-20T17:00:43.735Z,10.00
2019-03-20T17:03:16.248Z,10.00
2019-03-20T17:05:48.638Z,9.90
2019-03-20T17:08:21.645Z,9.90
2019-03-20T17:10:54.219Z,9.80
2019-03-20T17:13:26.816Z,9.80
2019-03-20T17:15:59.424Z,9.70
2019-03-20T17:18:32.062Z,9.70
2019-03-20T17:21:04.860Z,9.60
2019-03-20T17:23:37.257Z,9.50
2019-03-20T17:26:09.834Z,9.40
2019-03-20T17:28:42.340Z,9.30
2019-03-20T17:31:14.865Z,9.20
2019-03-20T17:33:47.246Z,9.20
2019-03-20T17:36:19.943Z,9.00
2019-03-20T17:38:52.339Z,9.00
2019-03-20T17:41:25.001Z,8.80
2019-03-20T17:43:57.563Z,8.80
2019-03-20T17:46:29.960Z,8.70
2019-03-20T17:49:02.485Z,8.60
2019-03-20T17:51:35.266Z,8.60
2019-03-20T17:54:07.809Z,8.60
2019-03-20T17:56:40.490Z,8.50
2019-03-20T17:59:13.348Z,8.50
2019-03-20T18:01:45.944Z,8.40
2019-03-20T18:04:18.552Z,8.30
2019-03-20T18:06:51.577Z,8.30
2019-03-20T18:09:24.421Z,8.30
2019-03-20T18:11:57.214Z,8.20
2019-03-20T18:14:30.015Z,8.20
2019-03-20T18:17:02.783Z,8.10
2019-03-20T18:19:35.539Z,8.10
2019-03-20T18:22:08.354Z,8.10
2019-03-20T18:24:41.048Z,8.20
2019-03-20T18:27:13.606Z,8.20
2019-03-20T18:29:46.132Z,8.20
2019-03-20T18:32:18.865Z,8.20
2019-03-20T18:34:51.686Z,8.20
2019-03-20T18:37:24.146Z,8.10
2019-03-20T18:39:56.620Z,8.10
2019-03-20T18:42:29.470Z,8.10
2019-03-20T18:45:02.217Z,8.20
2019-03-20T18:47:35.099Z,8.20
2019-03-20T18:50:08.740Z,8.20
2019-03-20T18:52:41.449Z,8.20
2019-03-20T18:55:14.377Z,8.10
2019-03-20T18:57:47.223Z,8.10
2019-03-20T19:00:25.191Z,8.10
2019-03-20T19:02:58.619Z,8.00
2019-03-20T19:06:14.363Z,8.00
2019-03-20T19:08:46.647Z,8.10
2019-03-20T19:11:19.086Z,8.10
2019-03-20T19:13:51.960Z,8.00
2019-03-20T19:16:24.748Z,7.90
2019-03-20T19:18:57.372Z,7.90
2019-03-20T19:21:29.886Z,7.80
2019-03-20T19:24:02.323Z,7.70
2019-03-20T19:26:34.849Z,7.70
2019-03-20T19:29:07.506Z,7.80
2019-03-20T19:31:40.545Z,7.70
2019-03-20T19:34:12.923Z,7.50
2019-03-20T19:36:45.431Z,7.60
2019-03-20T19:39:18.181Z,7.60
2019-03-20T19:41:50.773Z,7.50
2019-03-20T19:44:23.492Z,7.60
2019-03-20T19:46:56.413Z,7.60
2019-03-20T19:49:29.006Z,7.60
2019-03-20T19:52:01.636Z,7.60
2019-03-20T19:54:34.040Z,7.50
2019-03-20T19:57:06.839Z,7.60
2019-03-20T19:59:41.183Z,7.70
2019-03-20T20:02:13.799Z,7.60
2019-03-20T20:04:46.153Z,7.50
2019-03-20T20:07:18.711Z,7.50
2019-03-20T20:09:51.243Z,7.50
2019-03-20T20:12:31.122Z,7.50
2019-03-20T20:14:57.841Z,7.60
2019-03-20T20:17:30.434Z,7.60
2019-03-20T20:20:03.110Z,7.50
2019-03-20T20:22:35.736Z,7.50
2019-03-20T20:25:08.669Z,7.40
2019-03-20T20:27:41.132Z,7.30
2019-03-20T20:30:16.114Z,7.30
2019-03-20T20:32:48.549Z,7.30
2019-03-20T20:35:21.245Z,7.30
2019-03-20T20:37:53.711Z,7.30
2019-03-20T20:40:26.229Z,7.20
2019-03-20T20:42:58.850Z,7.10
2019-03-20T20:45:31.589Z,7.20
2019-03-20T20:48:04.477Z,7.20
2019-03-20T20:50:36.972Z,7.10
2019-03-20T20:53:09.513Z,7.10
2019-03-20T20:55:43.982Z,7.10
2019-03-20T20:58:16.517Z,7.00
2019-03-20T21:00:49.053Z,7.20
2019-03-20T21:03:21.490Z,7.20
2019-03-20T21:05:53.992Z,7.20
2019-03-20T21:08:26.748Z,7.10
2019-03-20T21:10:59.363Z,7.00
2019-03-20T21:13:32.204Z,7.00
2019-03-20T21:16:06.086Z,7.20
2019-03-20T21:19:34.743Z,7.20
2019-03-20T21:23:02.541Z,7.20
2019-03-20T21:25:36.421Z,7.50
2019-03-20T21:28:58.479Z,7.50
2019-03-20T21:31:52.903Z,7.40
2019-03-20T21:35:10.526Z,7.30
2019-03-20T21:38:04.735Z,7.30
2019-03-20T21:41:00.417Z,7.30
2019-03-20T21:44:30.980Z,7.40
2019-03-20T21:47:37.341Z,7.50
2019-03-20T21:50:50.748Z,7.40
2019-03-20T21:53:56.524Z,7.40
2019-03-20T21:56:36.947Z,7.40
2019-03-20T21:59:44.612Z,7.40
2019-03-20T22:02:44.373Z,7.50
2019-03-20T22:05:32.761Z,7.60
2019-03-20T22:08:06.282Z,7.60
2019-03-20T22:11:38.287Z,7.60
2019-03-20T22:14:12.851Z,7.60
2019-03-20T22:17:50.867Z,7.50
2019-03-20T22:20:57.417Z,7.40
2019-03-20T22:24:29.512Z,7.40
2019-03-20T22:28:09.690Z,7.40
2019-03-20T22:30:43.074Z,7.10
2019-03-20T22:33:59.157Z,6.90
2019-03-20T22:36:38.986Z,6.70
2019-03-20T22:40:25.312Z,6.70
2019-03-20T22:43:29.795Z,6.70
2019-03-20T22:46:46.523Z,6.80
2019-03-20T22:50:29.071Z,6.90
2019-03-20T22:54:22.080Z,6.90
2019-03-20T22:57:31.117Z,7.10
2019-03-20T23:00:05.526Z,7.00
2019-03-20T23:03:11.400Z,7.00
2019-03-20T23:05:44.766Z,7.30
2019-03-20T23:08:18.372Z,7.50
2019-03-20T23:10:52.775Z,7.50
2019-03-20T23:13:25.911Z,7.40
2019-03-20T23:15:59.419Z,7.20
2019-03-20T23:18:32.715Z,7.00
2019-03-20T23:21:06.169Z,6.80
2019-03-20T23:23:41.260Z,6.60
2019-03-20T23:26:14.366Z,6.50
2019-03-20T23:29:07.759Z,6.30
2019-03-20T23:32:12.058Z,6.20
2019-03-20T23:34:47.321Z,6.10
2019-03-20T23:37:20.522Z,6.00
2019-03-20T23:39:53.687Z,6.00
2019-03-20T23:42:27.796Z,6.00
2019-03-20T23:45:01.011Z,6.10
2019-03-20T23:47:51.214Z,6.10
2019-03-20T23:50:24.454Z,6.10
2019-03-20T23:52:57.541Z,5.90
2019-03-20T23:55:31.077Z,6.00
2019-03-20T23:58:04.497Z,5.90
